Time;durP1;ratioP1;P1;durP2;ratioP2;P2;SDS_P1;SDS_P2;PMS_P1;PMS_P2;Temp;Humidity;BMP_temperature;BMP_pressure;BME280_temperature;BME280_humidity;BME280_pressure;Samples;Min_cycle;Max_cycle;Signal;HPM_P1;HPM_P2
2023/04/30 00:02:11;;;;;;;8.02;3.30;;;8.10;99.90;;;;;;12395175;28;20054;-37
2023/04/30 00:08:26;;;;;;;6.97;3.03;;;8.00;99.90;;;;;;12441434;28;20049;-36
2023/04/30 00:14:34;;;;;;;7.55;3.63;;;8.20;99.90;;;;;;12431894;28;20526;-36
2023/04/30 00:20:42;;;;;;;10.50;3.90;;;8.20;99.90;;;;;;12441791;28;20053;-37
2023/04/30 00:26:50;;;;;;;6.28;3.20;;;8.10;99.90;;;;;;12434230;28;20050;-37
2023/04/30 00:32:58;;;;;;;6.97;3.03;;;7.90;99.90;;;;;;12426131;28;20569;-37
2023/04/30 00:39:06;;;;;;;8.50;2.90;;;7.70;99.90;;;;;;12437077;28;20057;-37
2023/04/30 00:45:16;;;;;;;10.77;3.60;;;8.00;99.90;;;;;;12422239;28;20119;-37
2023/04/30 00:51:26;;;;;;;7.30;3.20;;;7.90;99.90;;;;;;12425716;28;20133;-36
2023/04/30 00:57:35;;;;;;;10.25;3.17;;;7.70;99.90;;;;;;12431534;28;20104;-37
2023/04/30 01:03:43;;;;;;;10.73;3.58;;;7.40;99.90;;;;;;12437760;28;20198;-37
2023/04/30 01:09:52;;;;;;;10.38;3.35;;;7.30;99.90;;;;;;12434526;28;20529;-37
2023/04/30 01:16:21;;;;;;;7.25;3.20;;;7.40;99.90;;;;;;12427883;28;20046;-37
2023/04/30 01:22:50;;;;;;;12.70;3.80;;;7.30;99.90;;;;;;12433197;28;20505;-37
2023/04/30 01:29:01;;;;;;;9.05;3.28;;;7.40;99.90;;;;;;12433389;28;20042;-37
2023/04/30 01:35:10;;;;;;;10.60;3.60;;;7.60;99.90;;;;;;12435035;28;20406;-37
2023/04/30 01:41:47;;;;;;;9.93;3.40;;;7.60;99.90;;;;;;12421271;28;20049;-36
2023/04/30 01:48:01;;;;;;;9.40;3.47;;;7.40;99.90;;;;;;12431517;28;20477;-36
2023/04/30 01:54:26;;;;;;;10.60;3.20;;;7.20;99.90;;;;;;12433869;28;20069;-37
2023/04/30 02:00:35;;;;;;;6.90;3.05;;;7.20;99.90;;;;;;12419242;28;20042;-37
2023/04/30 02:06:49;;;;;;;8.05;2.95;;;7.40;99.90;;;;;;12409851;28;20058;-37
2023/04/30 02:13:00;;;;;;;8.32;3.65;;;7.50;99.90;;;;;;12423326;28;20413;-37
2023/04/30 02:19:10;;;;;;;10.32;3.80;;;7.10;99.90;;;;;;12421654;28;20046;-36
2023/04/30 02:25:18;;;;;;;15.10;3.63;;;7.00;99.90;;;;;;12476385;28;20160;-36
2023/04/30 02:31:26;;;;;;;7.32;3.13;;;6.90;99.90;;;;;;12486132;28;20050;-37
2023/04/30 02:37:34;;;;;;;9.73;3.63;;;7.00;99.90;;;;;;12497751;28;20513;-37
2023/04/30 02:43:42;;;;;;;10.80;3.72;;;7.10;99.90;;;;;;12490324;28;20056;-36
2023/04/30 02:49:50;;;;;;;8.00;3.15;;;7.10;99.90;;;;;;12493785;28;20054;-37
2023/04/30 02:55:58;;;;;;;10.07;3.35;;;6.90;99.90;;;;;;12483287;28;20056;-37
2023/04/30 03:02:07;;;;;;;12.63;4.25;;;6.90;99.90;;;;;;12494194;28;20052;-36
2023/04/30 03:08:22;;;;;;;9.45;3.60;;;6.80;99.90;;;;;;12492460;28;20053;-37
2023/04/30 03:14:30;;;;;;;10.80;3.60;;;6.40;99.90;;;;;;12449842;28;20053;-37
2023/04/30 03:20:38;;;;;;;9.27;3.70;;;6.50;99.90;;;;;;12492464;28;20103;-37
2023/04/30 03:26:46;;;;;;;8.45;3.42;;;6.50;99.90;;;;;;12470666;28;20052;-37
2023/04/30 03:32:54;;;;;;;13.30;4.68;;;6.60;99.90;;;;;;12492231;28;20054;-36
2023/04/30 03:39:02;;;;;;;8.95;3.67;;;6.30;99.90;;;;;;12490119;28;20057;-36
2023/04/30 03:45:11;;;;;;;13.23;4.40;;;6.30;99.90;;;;;;12485702;28;20046;-36
2023/04/30 03:51:21;;;;;;;7.72;4.45;;;6.30;99.90;;;;;;12490308;28;20045;-36
2023/04/30 03:57:30;;;;;;;9.73;4.07;;;6.30;99.90;;;;;;12487904;28;20045;-37
2023/04/30 04:03:39;;;;;;;11.50;3.97;;;6.30;99.90;;;;;;12469681;28;20053;-36
2023/04/30 04:09:48;;;;;;;8.73;3.80;;;5.90;99.90;;;;;;12485844;28;20120;-37
2023/04/30 04:15:56;;;;;;;10.98;3.70;;;6.10;99.90;;;;;;12480004;28;20631;-36
2023/04/30 04:22:06;;;;;;;11.80;4.50;;;6.30;99.90;;;;;;12478075;28;20049;-37
2023/04/30 04:28:16;;;;;;;10.25;4.00;;;6.20;99.90;;;;;;12485631;28;20049;-37
2023/04/30 04:34:24;;;;;;;10.50;3.70;;;6.40;99.90;;;;;;12487469;28;20129;-36
2023/04/30 04:40:34;;;;;;;11.18;4.10;;;6.60;99.90;;;;;;12468939;28;20080;-36
2023/04/30 04:46:43;;;;;;;11.73;4.22;;;6.90;99.90;;;;;;12479566;28;20451;-36
2023/04/30 04:52:51;;;;;;;10.55;4.10;;;7.40;99.90;;;;;;12480053;28;20053;-36
2023/04/30 04:59:00;;;;;;;9.40;3.00;;;10.50;99.90;;;;;;12486616;28;20049;-36
2023/04/30 05:05:21;;;;;;;9.30;3.15;;;13.90;99.90;;;;;;12479331;28;20049;-37
2023/04/30 05:11:30;;;;;;;10.63;3.35;;;15.00;99.90;;;;;;12478996;28;20057;-36
2023/04/30 05:17:38;;;;;;;10.52;3.17;;;12.40;99.90;;;;;;12482349;28;20070;-36
2023/04/30 05:23:52;;;;;;;12.18;4.60;;;12.00;99.90;;;;;;12442156;28;20076;-36
2023/04/30 05:30:01;;;;;;;9.65;3.28;;;11.30;99.90;;;;;;12487790;28;20095;-37
2023/04/30 05:36:10;;;;;;;13.05;4.00;;;10.40;99.90;;;;;;12486214;28;20046;-36
2023/04/30 05:42:19;;;;;;;10.27;3.25;;;10.80;99.90;;;;;;12486827;28;20080;-36
2023/04/30 05:48:27;;;;;;;9.38;3.72;;;10.90;99.90;;;;;;12466801;28;20481;-36
2023/04/30 05:54:35;;;;;;;9.85;3.75;;;11.80;99.90;;;;;;12486117;28;20045;-37
2023/04/30 06:00:47;;;;;;;10.73;3.03;;;12.20;99.90;;;;;;12484459;28;20045;-37
2023/04/30 06:07:03;;;;;;;10.75;2.90;;;10.80;99.90;;;;;;12480561;28;20132;-37
2023/04/30 06:13:11;;;;;;;10.85;3.38;;;8.70;99.90;;;;;;12469937;28;20046;-37
2023/04/30 06:19:20;;;;;;;8.85;2.72;;;8.90;99.90;;;;;;12461606;28;20136;-36
2023/04/30 06:25:28;;;;;;;15.07;3.97;;;9.00;99.90;;;;;;12481852;28;20095;-37
2023/04/30 06:31:36;;;;;;;10.20;2.47;;;9.20;99.90;;;;;;12480848;28;20041;-37
2023/04/30 06:37:44;;;;;;;13.63;2.83;;;8.70;99.90;;;;;;12478619;28;20098;-37
2023/04/30 06:43:52;;;;;;;16.10;2.78;;;9.70;99.90;;;;;;12484847;28;20037;-37
2023/04/30 06:50:00;;;;;;;8.52;2.55;;;9.20;99.90;;;;;;12478694;28;20046;-37
2023/04/30 06:56:09;;;;;;;11.68;2.47;;;9.30;99.90;;;;;;12438467;28;20045;-37
2023/04/30 07:02:17;;;;;;;6.38;1.85;;;9.40;99.90;;;;;;12440106;28;20061;-37
2023/04/30 07:08:31;;;;;;;8.20;2.08;;;9.20;99.90;;;;;;12427788;28;20108;-37
2023/04/30 07:14:40;;;;;;;15.35;2.90;;;9.20;99.90;;;;;;12460857;28;20049;-37
2023/04/30 07:20:49;;;;;;;11.35;2.85;;;9.30;99.90;;;;;;12469492;28;20119;-37
2023/04/30 07:27:01;;;;;;;13.90;2.92;;;9.40;99.90;;;;;;12500846;28;20636;-37
2023/04/30 07:33:11;;;;;;;12.93;3.40;;;9.50;99.90;;;;;;12474485;28;20119;-37
2023/04/30 07:39:19;;;;;;;11.50;3.30;;;9.60;99.90;;;;;;12490050;28;20064;-37
2023/04/30 07:45:34;;;;;;;9.73;2.90;;;10.00;99.90;;;;;;12487392;28;20100;-37
2023/04/30 07:51:43;;;;;;;15.35;3.15;;;9.90;99.90;;;;;;12487520;28;20536;-37
2023/04/30 07:57:51;;;;;;;10.70;2.85;;;9.50;99.90;;;;;;12465395;28;20100;-37
2023/04/30 08:03:59;;;;;;;9.23;2.90;;;9.70;99.90;;;;;;12459453;28;20060;-37
2023/04/30 08:10:14;;;;;;;9.18;2.75;;;10.50;99.90;;;;;;12467153;28;20539;-36
2023/04/30 08:16:23;;;;;;;8.52;2.60;;;10.20;99.90;;;;;;12428157;28;20056;-37
2023/04/30 08:22:31;;;;;;;8.88;3.00;;;10.50;99.90;;;;;;12490743;28;20420;-37
2023/04/30 08:28:40;;;;;;;11.40;2.50;;;10.50;99.90;;;;;;12491121;28;20042;-37
2023/04/30 08:34:48;;;;;;;11.70;3.08;;;10.60;99.90;;;;;;12489436;28;20042;-37
2023/04/30 08:41:19;;;;;;;7.57;2.30;;;10.50;99.90;;;;;;12488448;28;20045;-37
2023/04/30 08:47:27;;;;;;;11.63;2.75;;;11.20;99.90;;;;;;12482025;28;20064;-38
2023/04/30 08:53:37;;;;;;;11.23;3.00;;;11.40;99.90;;;;;;12472272;28;20080;-37
2023/04/30 08:59:46;;;;;;;10.00;2.38;;;11.60;99.90;;;;;;12455940;28;21270;-38
2023/04/30 09:05:55;;;;;;;8.85;2.30;;;11.70;99.90;;;;;;12449568;28;20052;-38
2023/04/30 09:12:13;;;;;;;10.82;2.65;;;11.40;99.90;;;;;;12460799;28;20095;-38
2023/04/30 09:18:22;;;;;;;9.80;2.78;;;11.30;99.90;;;;;;12477927;28;20110;-38
2023/04/30 09:24:46;;;;;;;9.65;2.90;;;12.00;99.90;;;;;;12473894;28;20049;-37
2023/04/30 09:30:58;;;;;;;8.75;1.90;;;12.10;99.90;;;;;;12471738;28;20087;-38
2023/04/30 09:37:07;;;;;;;11.55;2.88;;;12.30;99.90;;;;;;12465148;28;20861;-37
2023/04/30 09:43:15;;;;;;;7.53;2.53;;;12.90;99.90;;;;;;12489487;28;20064;-37
2023/04/30 09:49:25;;;;;;;11.85;2.30;;;13.50;99.90;;;;;;12489611;28;20140;-39
2023/04/30 09:55:34;;;;;;;14.00;2.47;;;13.10;99.90;;;;;;12489787;28;20042;-38
2023/04/30 10:01:43;;;;;;;9.90;2.28;;;13.50;99.90;;;;;;12500634;28;20041;-38
2023/04/30 10:07:45;;;;;;;11.88;2.65;;;13.80;99.90;;;;;;12475200;28;20521;-38
2023/04/30 10:13:58;;;;;;;7.80;2.47;;;14.10;99.90;;;;;;12472620;28;20226;-40
2023/04/30 10:20:06;;;;;;;7.20;2.05;;;13.60;99.90;;;;;;12489809;28;20434;-38
2023/04/30 10:26:11;;;;;;;5.97;2.45;;;14.70;99.90;;;;;;12490823;28;20446;-38
2023/04/30 10:32:14;;;;;;;11.20;2.92;;;14.20;99.90;;;;;;12472080;28;20542;-38
2023/04/30 10:38:21;;;;;;;6.28;2.05;;;14.10;99.90;;;;;;12485853;28;20059;-38
2023/04/30 10:44:25;;;;;;;5.35;1.70;;;14.10;99.90;;;;;;12481012;28;20037;-38
2023/04/30 10:50:28;;;;;;;;;;;13.70;99.90;;;;;;12464719;28;20440;-38
2023/04/30 10:56:31;;;;;;;6.07;1.38;;;14.10;99.90;;;;;;12501896;28;20054;-38
2023/04/30 11:02:47;;;;;;;4.27;1.37;;;15.30;99.90;;;;;;12495198;28;20394;-38
2023/04/30 11:08:49;;;;;;;6.22;1.30;;;15.40;99.90;;;;;;12492540;28;20053;-37
2023/04/30 11:14:51;;;;;;;6.80;1.95;;;15.30;99.90;;;;;;12490171;28;20498;-38
2023/04/30 11:20:56;;;;;;;6.00;1.70;;;14.70;99.90;;;;;;12495048;28;20041;-37
2023/04/30 11:27:04;;;;;;;4.13;1.17;;;15.00;99.90;;;;;;12490188;28;20141;-38
2023/04/30 11:33:07;;;;;;;4.53;1.77;;;14.80;99.90;;;;;;12493882;28;20189;-38
2023/04/30 11:39:10;;;;;;;5.68;1.60;;;15.10;99.90;;;;;;12505493;28;20046;-38
2023/04/30 11:45:19;;;;;;;6.38;1.90;;;14.80;99.90;;;;;;12511993;28;20071;-38
2023/04/30 11:51:23;;;;;;;4.80;1.73;;;15.10;99.90;;;;;;12504298;28;20041;-38
2023/04/30 11:57:25;;;;;;;8.10;1.80;;;14.80;99.90;;;;;;12484219;28;20111;-38
2023/04/30 12:03:28;;;;;;;9.50;2.20;;;15.10;99.90;;;;;;12495789;28;20045;-38
2023/04/30 12:09:30;;;;;;;8.02;1.77;;;14.50;99.90;;;;;;12478515;28;20049;-38
2023/04/30 12:15:33;;;;;;;4.55;1.83;;;15.00;99.90;;;;;;12488513;28;20095;-38
2023/04/30 12:21:35;;;;;;;6.30;1.98;;;15.50;99.90;;;;;;12503534;28;20081;-38
2023/04/30 12:27:37;;;;;;;8.48;2.50;;;15.10;99.90;;;;;;12502978;28;20135;-38
2023/04/30 12:33:39;;;;;;;7.50;2.60;;;14.80;99.90;;;;;;12480477;28;20132;-38
2023/04/30 12:39:41;;;;;;;5.80;1.92;;;15.10;99.90;;;;;;12498317;28;20041;-38
2023/04/30 12:45:51;;;;;;;6.32;2.20;;;15.40;99.90;;;;;;12498971;28;20042;-38
2023/04/30 12:52:01;;;;;;;8.60;2.13;;;15.40;99.90;;;;;;12484507;28;20063;-38
2023/04/30 12:58:13;;;;;;;6.22;2.20;;;15.10;99.90;;;;;;12490426;28;20045;-38
2023/04/30 13:04:15;;;;;;;5.63;1.73;;;15.20;99.90;;;;;;12497642;28;20060;-38
2023/04/30 13:10:17;;;;;;;9.27;2.00;;;15.60;99.90;;;;;;12490661;28;20057;-38
2023/04/30 13:16:19;;;;;;;3.60;1.50;;;15.60;99.90;;;;;;12472443;28;20051;-38
2023/04/30 13:22:22;;;;;;;6.72;1.67;;;14.90;99.90;;;;;;12481910;28;20675;-37
2023/04/30 13:28:24;;;;;;;4.73;1.87;;;14.60;99.90;;;;;;12480196;28;20107;-37
2023/04/30 13:34:26;;;;;;;7.20;1.58;;;15.20;99.90;;;;;;12486104;28;20067;-37
2023/04/30 13:40:28;;;;;;;4.82;1.63;;;15.10;99.90;;;;;;12479517;28;20077;-40
2023/04/30 13:46:30;;;;;;;6.10;1.80;;;15.10;99.90;;;;;;12483361;28;20073;-41
2023/04/30 13:52:32;;;;;;;5.25;1.30;;;15.00;99.90;;;;;;12487320;28;20041;-41
2023/04/30 13:58:33;;;;;;;6.35;1.50;;;15.50;99.90;;;;;;12484897;28;20072;-41
2023/04/30 14:04:36;;;;;;;5.10;1.60;;;15.40;99.90;;;;;;12466235;28;20041;-42
2023/04/30 14:10:38;;;;;;;6.07;1.40;;;16.10;99.90;;;;;;12484163;28;20038;-39
2023/04/30 14:16:41;;;;;;;5.65;1.60;;;15.90;99.90;;;;;;12475605;28;20053;-41
2023/04/30 14:22:43;;;;;;;4.47;1.38;;;16.00;99.90;;;;;;12506821;28;20098;-40
2023/04/30 14:28:45;;;;;;;6.82;1.60;;;15.70;99.90;;;;;;12457157;28;20176;-41
2023/04/30 14:34:46;;;;;;;5.57;1.90;;;16.00;99.90;;;;;;12483604;28;20140;-42
2023/04/30 14:40:48;;;;;;;4.80;1.42;;;16.30;99.90;;;;;;12514787;28;20088;-41
2023/04/30 14:46:50;;;;;;;4.90;1.40;;;15.70;99.90;;;;;;12507589;28;20041;-40
2023/04/30 14:52:52;;;;;;;5.32;1.67;;;15.90;99.90;;;;;;12492347;28;20049;-41
2023/04/30 14:58:54;;;;;;;6.80;1.30;;;16.20;99.90;;;;;;12477772;28;20057;-41
2023/04/30 15:04:56;;;;;;;7.35;1.75;;;16.60;99.90;;;;;;12486993;28;20100;-40
2023/04/30 15:10:59;;;;;;;4.38;1.60;;;16.00;99.90;;;;;;12479331;28;20094;-41
2023/04/30 15:17:01;;;;;;;3.17;1.30;;;16.20;99.90;;;;;;12483097;28;21749;-41
2023/04/30 15:23:03;;;;;;;5.93;1.60;;;15.90;99.90;;;;;;12492879;28;20057;-40
2023/04/30 15:29:05;;;;;;;4.85;1.55;;;16.40;99.90;;;;;;12469311;28;20121;-41
2023/04/30 15:35:07;;;;;;;6.28;1.60;;;15.40;99.90;;;;;;12481314;28;20053;-41
2023/04/30 15:41:09;;;;;;;4.10;1.80;;;15.40;99.90;;;;;;12477878;28;20503;-40
2023/04/30 15:47:11;;;;;;;10.10;2.40;;;15.90;99.90;;;;;;12491930;28;20513;-41
2023/04/30 15:53:13;;;;;;;4.22;1.50;;;15.40;99.90;;;;;;12485694;28;20033;-41
2023/04/30 15:59:15;;;;;;;7.20;1.40;;;15.60;99.90;;;;;;12483695;28;20131;-39
2023/04/30 16:05:20;;;;;;;3.92;1.40;;;15.90;99.90;;;;;;12488655;28;20071;-41
2023/04/30 16:11:22;;;;;;;5.95;1.25;;;16.10;99.90;;;;;;12495777;28;20131;-40
2023/04/30 16:17:24;;;;;;;5.45;1.55;;;16.00;99.90;;;;;;12469520;28;20473;-40
2023/04/30 16:23:27;;;;;;;4.32;1.80;;;15.50;99.90;;;;;;12474615;28;20064;-40
2023/04/30 16:29:29;;;;;;;5.10;1.38;;;15.50;99.90;;;;;;12487616;28;20139;-40
2023/04/30 16:35:30;;;;;;;4.40;1.58;;;16.60;99.90;;;;;;12483697;28;20080;-41
2023/04/30 16:41:32;;;;;;;7.10;1.55;;;15.80;99.90;;;;;;12486632;28;20460;-41
2023/04/30 16:47:34;;;;;;;5.57;1.67;;;16.00;99.90;;;;;;12501018;28;20057;-41
2023/04/30 16:53:36;;;;;;;5.45;1.33;;;16.40;99.90;;;;;;12483430;28;20553;-41
2023/04/30 16:59:38;;;;;;;7.07;1.70;;;15.50;99.90;;;;;;12492741;28;20049;-40
2023/04/30 17:05:40;;;;;;;4.72;1.30;;;15.50;99.90;;;;;;12482394;28;20049;-40
2023/04/30 17:11:45;;;;;;;7.88;1.65;;;16.00;99.90;;;;;;12499357;28;20079;-41
2023/04/30 17:17:47;;;;;;;6.00;1.40;;;15.60;99.90;;;;;;12484159;28;20105;-41
2023/04/30 17:23:49;;;;;;;9.75;1.77;;;15.90;99.90;;;;;;12492693;28;20046;-41
2023/04/30 17:29:51;;;;;;;8.93;1.42;;;15.80;99.90;;;;;;12488437;28;20049;-41
2023/04/30 17:35:53;;;;;;;8.20;1.45;;;15.90;99.90;;;;;;12491091;28;20041;-41
2023/04/30 17:41:55;;;;;;;4.50;1.27;;;16.00;99.90;;;;;;12470057;28;20049;-40
2023/04/30 17:47:57;;;;;;;4.55;1.40;;;14.80;99.90;;;;;;12477585;28;20184;-40
2023/04/30 17:53:59;;;;;;;5.70;1.73;;;14.70;99.90;;;;;;12451499;28;20037;-40
2023/04/30 18:00:01;;;;;;;5.57;1.67;;;14.50;99.90;;;;;;12477875;28;20450;-39
2023/04/30 18:06:02;;;;;;;4.65;1.50;;;13.80;99.90;;;;;;12482657;28;20493;-40
2023/04/30 18:12:04;;;;;;;4.05;1.40;;;13.40;99.90;;;;;;12473129;28;20049;-40
2023/04/30 18:18:06;;;;;;;7.65;1.45;;;13.10;99.90;;;;;;12491752;28;20049;-39
2023/04/30 18:24:09;;;;;;;4.80;1.50;;;13.10;99.90;;;;;;12494645;28;20053;-40
2023/04/30 18:30:11;;;;;;;7.53;1.50;;;12.90;99.90;;;;;;12478888;28;20132;-40
2023/04/30 18:36:13;;;;;;;6.18;1.38;;;12.80;99.90;;;;;;12457849;28;20091;-40
2023/04/30 18:42:15;;;;;;;7.05;1.95;;;12.70;99.90;;;;;;12483370;28;20046;-40
2023/04/30 18:48:17;;;;;;;10.85;2.00;;;12.60;99.90;;;;;;12479137;28;20041;-41
2023/04/30 18:54:20;;;;;;;8.48;2.28;;;12.50;99.90;;;;;;12487747;28;20060;-40
2023/04/30 19:00:22;;;;;;;7.57;2.38;;;12.40;99.90;;;;;;12485388;28;20060;-39
2023/04/30 19:06:24;;;;;;;5.07;2.20;;;12.30;99.90;;;;;;12481058;28;20068;-40
2023/04/30 19:12:26;;;;;;;5.93;2.05;;;12.30;99.90;;;;;;12474242;28;20053;-40
2023/04/30 19:18:28;;;;;;;7.65;2.00;;;12.10;99.90;;;;;;12478335;28;20448;-40
2023/04/30 19:24:29;;;;;;;9.23;1.90;;;11.80;99.90;;;;;;12489738;28;20061;-40
2023/04/30 19:30:31;;;;;;;11.07;2.10;;;11.70;99.90;;;;;;12490281;28;20045;-40
2023/04/30 19:36:33;;;;;;;10.63;2.05;;;11.70;99.90;;;;;;12487970;28;20505;-40
2023/04/30 19:42:35;;;;;;;8.25;2.05;;;11.60;99.90;;;;;;12483523;28;20057;-39
2023/04/30 19:48:37;;;;;;;7.90;2.60;;;11.60;99.90;;;;;;12505865;28;20045;-39
2023/04/30 19:54:39;;;;;;;9.18;2.95;;;11.50;99.90;;;;;;12486436;28;20460;-39
2023/04/30 20:00:42;;;;;;;9.82;3.08;;;11.40;99.90;;;;;;12487794;28;20045;-39
2023/04/30 20:06:44;;;;;;;7.45;2.80;;;11.20;99.90;;;;;;12487866;28;20049;-39
2023/04/30 20:12:46;;;;;;;4.60;2.15;;;11.30;99.90;;;;;;12467294;28;20132;-39
2023/04/30 20:18:47;;;;;;;5.93;2.40;;;11.10;99.90;;;;;;12497449;28;20053;-39
2023/04/30 20:24:49;;;;;;;5.72;2.28;;;11.10;99.90;;;;;;12493041;28;20046;-39
2023/04/30 20:30:51;;;;;;;8.00;2.15;;;10.80;99.90;;;;;;12493686;28;20489;-39
2023/04/30 20:36:53;;;;;;;4.40;2.47;;;10.60;99.90;;;;;;12507703;28;20496;-39
2023/04/30 20:42:55;;;;;;;10.32;2.50;;;10.50;99.90;;;;;;12476720;28;20108;-39
2023/04/30 20:49:02;;;;;;;8.77;2.33;;;10.60;99.90;;;;;;12488405;28;20045;-40
2023/04/30 20:55:04;;;;;;;10.25;2.33;;;10.40;99.90;;;;;;12498028;28;20049;-39
2023/04/30 21:01:06;;;;;;;6.78;2.40;;;10.30;99.90;;;;;;12500215;28;20061;-39
2023/04/30 21:07:08;;;;;;;7.95;2.00;;;10.30;99.90;;;;;;12487068;28;20057;-40
2023/04/30 21:13:11;;;;;;;6.68;2.33;;;10.40;99.90;;;;;;12480735;28;20046;-40
2023/04/30 21:19:13;;;;;;;6.70;1.80;;;10.30;99.90;;;;;;12478489;28;20441;-39
2023/04/30 21:25:15;;;;;;;7.32;2.20;;;10.30;99.90;;;;;;12494425;28;20049;-39
2023/04/30 21:31:18;;;;;;;5.63;1.85;;;10.20;99.90;;;;;;12494102;28;20495;-39
2023/04/30 21:37:20;;;;;;;5.70;2.00;;;10.20;99.90;;;;;;12477048;28;20056;-40
2023/04/30 21:43:22;;;;;;;5.90;2.17;;;10.10;99.90;;;;;;12491810;28;20398;-40
2023/04/30 21:49:25;;;;;;;7.05;1.73;;;10.00;99.90;;;;;;12484879;28;20053;-39
2023/04/30 21:55:26;;;;;;;5.47;1.65;;;9.90;99.90;;;;;;12488628;28;20054;-39
2023/04/30 22:01:28;;;;;;;6.85;1.80;;;10.00;99.90;;;;;;12477329;28;20058;-40
2023/04/30 22:07:30;;;;;;;5.93;1.70;;;10.00;99.90;;;;;;12472612;28;20061;-40
2023/04/30 22:13:32;;;;;;;6.45;1.80;;;10.00;99.90;;;;;;12473946;28;20046;-40
2023/04/30 22:19:34;;;;;;;6.13;2.55;;;10.00;99.90;;;;;;12477599;28;20057;-39
2023/04/30 22:25:36;;;;;;;6.57;1.60;;;10.00;99.90;;;;;;12489574;28;20514;-40
2023/04/30 22:31:38;;;;;;;6.90;1.80;;;10.30;99.90;;;;;;12489349;28;20049;-40
2023/04/30 22:37:40;;;;;;;6.60;1.77;;;10.50;99.90;;;;;;12480922;28;20049;-40
2023/04/30 22:43:46;;;;;;;8.93;1.90;;;10.60;99.90;;;;;;12478028;28;20048;-40
2023/04/30 22:49:48;;;;;;;6.38;1.88;;;10.50;99.90;;;;;;12477113;28;20057;-39
2023/04/30 22:55:50;;;;;;;7.63;1.83;;;10.50;99.90;;;;;;12486730;28;20052;-41
2023/04/30 23:01:52;;;;;;;4.90;1.70;;;10.10;99.90;;;;;;12479254;28;20041;-40
2023/04/30 23:07:54;;;;;;;8.35;1.75;;;10.10;99.90;;;;;;12482608;28;20053;-40
2023/04/30 23:13:55;;;;;;;4.68;1.90;;;9.60;99.90;;;;;;12460701;28;20049;-40
2023/04/30 23:19:57;;;;;;;5.15;2.13;;;9.80;99.90;;;;;;12483910;28;20077;-39
2023/04/30 23:26:00;;;;;;;7.10;2.38;;;9.50;99.90;;;;;;12510284;28;20080;-40
2023/04/30 23:32:03;;;;;;;6.00;2.05;;;9.40;99.90;;;;;;12505120;28;20053;-39
2023/04/30 23:38:05;;;;;;;7.95;2.05;;;9.40;99.90;;;;;;12476371;28;20053;-39
2023/04/30 23:44:07;;;;;;;6.18;2.22;;;9.30;99.90;;;;;;12492225;28;20136;-39
2023/04/30 23:50:10;;;;;;;7.75;1.98;;;9.30;99.90;;;;;;12509626;28;20045;-39
2023/04/30 23:56:12;;;;;;;5.55;1.83;;;8.70;99.90;;;;;;12501990;28;20516;-39
